createdAt,value
2023-02-11T00:01:29.380Z,45.13
2023-02-11T00:03:58.600Z,43.55
2023-02-11T00:06:28.751Z,46.30
2023-02-11T00:08:57.236Z,44.25
2023-02-11T00:11:30.239Z,47.05
2023-02-11T00:14:04.632Z,42.35
2023-02-11T00:16:32.620Z,44.10
2023-02-11T00:19:01.602Z,47.03
2023-02-11T00:21:30.353Z,43.08
2023-02-11T00:23:59.905Z,44.95
2023-02-11T00:26:34.515Z,38.95
2023-02-11T00:29:02.467Z,43.92
2023-02-11T00:31:29.853Z,42.95
2023-02-11T00:33:57.041Z,46.30
2023-02-11T00:36:27.629Z,42.15
2023-02-11T00:38:57.307Z,42.13
2023-02-11T00:41:24.983Z,43.28
2023-02-11T00:43:52.950Z,43.25
2023-02-11T00:46:20.870Z,44.58
2023-02-11T00:48:48.257Z,45.28
2023-02-11T00:51:15.737Z,43.58
2023-02-11T00:53:42.723Z,42.15
2023-02-11T00:56:11.050Z,43.20
2023-02-11T00:58:38.305Z,50.08
2023-02-11T01:01:05.936Z,49.72
2023-02-11T01:03:33.245Z,47.95
2023-02-11T01:06:00.742Z,51.25
2023-02-11T01:08:28.230Z,49.05
2023-02-11T01:11:01.843Z,51.38
2023-02-11T01:13:30.457Z,48.92
2023-02-11T01:15:58.461Z,48.50
2023-02-11T01:18:26.421Z,50.35
2023-02-11T01:20:54.460Z,51.65
2023-02-11T01:23:21.747Z,54.47
2023-02-11T01:25:50.659Z,49.30
2023-02-11T01:28:22.271Z,47.03
2023-02-11T01:30:51.365Z,49.45
2023-02-11T01:33:18.583Z,49.05
2023-02-11T01:35:46.457Z,45.15
2023-02-11T01:38:26.304Z,47.78
2023-02-11T01:40:59.996Z,46.47
2023-02-11T01:43:31.362Z,44.47
2023-02-11T01:46:36.894Z,48.83
2023-02-11T01:49:16.534Z,43.83
2023-02-11T01:51:52.005Z,49.58
2023-02-11T01:54:45.179Z,52.63
2023-02-11T01:57:24.885Z,51.33
2023-02-11T02:00:27.951Z,44.17
2023-02-11T02:03:20.241Z,40.30
2023-02-11T02:06:08.089Z,45.13
2023-02-11T02:08:44.255Z,47.75
2023-02-11T02:11:11.931Z,44.67
2023-02-11T02:13:39.328Z,50.13
2023-02-11T02:16:14.499Z,48.83
2023-02-11T02:19:28.130Z,48.63
2023-02-11T02:22:51.180Z,54.28
2023-02-11T02:25:46.435Z,54.70
2023-02-11T02:28:35.903Z,53.10
2023-02-11T02:31:09.300Z,46.20
2023-02-11T02:34:02.735Z,47.75
2023-02-11T02:37:15.125Z,47.63
2023-02-11T02:39:46.283Z,53.20
2023-02-11T02:42:15.598Z,47.58
2023-02-11T02:44:53.236Z,52.05
2023-02-11T02:47:20.450Z,46.88
2023-02-11T02:49:47.571Z,45.05
2023-02-11T02:52:42.945Z,44.10
2023-02-11T02:55:44.347Z,32.65
2023-02-11T02:58:37.714Z,45.78
2023-02-11T03:01:22.494Z,46.42
2023-02-11T03:04:06.653Z,48.28
2023-02-11T03:06:57.745Z,44.17
2023-02-11T03:09:33.837Z,45.80
2023-02-11T03:12:04.328Z,43.60
2023-02-11T03:14:35.516Z,45.10
2023-02-11T03:17:08.724Z,41.38
2023-02-11T03:19:43.801Z,38.20
2023-02-11T03:22:22.297Z,42.33
2023-02-11T03:24:49.832Z,43.33
2023-02-11T03:27:53.103Z,42.20
2023-02-11T03:30:41.864Z,43.20
2023-02-11T03:33:29.287Z,41.40
2023-02-11T03:36:15.925Z,37.65
2023-02-11T03:38:54.011Z,37.90
2023-02-11T03:41:25.089Z,39.83
2023-02-11T03:43:59.709Z,41.35
2023-02-11T03:46:41.248Z,42.33
2023-02-11T03:49:13.696Z,37.13
2023-02-11T03:51:41.835Z,40.35
2023-02-11T03:54:19.578Z,37.15
2023-02-11T03:56:57.407Z,39.42
2023-02-11T03:59:24.496Z,43.22
2023-02-11T04:01:52.754Z,37.95
2023-02-11T04:04:20.576Z,37.75
2023-02-11T04:06:47.884Z,38.10
2023-02-11T04:09:15.288Z,41.58
2023-02-11T04:11:42.531Z,42.90
2023-02-11T04:14:09.585Z,34.85
2023-02-11T04:16:36.884Z,41.58
2023-02-11T04:19:04.122Z,37.30
2023-02-11T04:21:31.771Z,36.38
2023-02-11T04:23:58.793Z,41.15
2023-02-11T04:26:26.019Z,39.67
2023-02-11T04:28:52.942Z,35.13
2023-02-11T04:31:20.346Z,35.60
2023-02-11T04:33:47.383Z,36.08
2023-02-11T04:36:14.773Z,38.45
2023-02-11T04:38:41.744Z,38.88
2023-02-11T04:41:08.905Z,34.17
2023-02-11T04:43:35.831Z,37.42
2023-02-11T04:46:03.279Z,36.17
2023-02-11T04:48:30.292Z,35.45
2023-02-11T04:50:57.538Z,35.47
2023-02-11T04:53:24.543Z,34.13
2023-02-11T04:55:52.406Z,36.13
2023-02-11T04:58:20.375Z,32.90
2023-02-11T05:00:48.330Z,33.58
2023-02-11T05:03:16.255Z,35.22
2023-02-11T05:05:44.025Z,31.58
2023-02-11T05:08:11.616Z,36.58
2023-02-11T05:10:39.375Z,30.63
2023-02-11T05:13:06.262Z,33.00
2023-02-11T05:15:33.553Z,34.88
2023-02-11T05:18:00.499Z,35.67
2023-02-11T05:20:27.708Z,34.72
2023-02-11T05:22:55.036Z,33.28
2023-02-11T05:25:22.370Z,36.42
2023-02-11T05:27:49.323Z,35.80
2023-02-11T05:30:16.556Z,34.30
2023-02-11T05:32:43.412Z,33.72
2023-02-11T05:35:10.758Z,34.03
2023-02-11T05:37:37.819Z,33.83
2023-02-11T05:40:06.575Z,33.55
2023-02-11T05:42:33.550Z,33.35
2023-02-11T05:45:01.028Z,36.78
2023-02-11T05:47:28.192Z,34.45
2023-02-11T05:49:55.485Z,32.00
2023-02-11T05:52:23.620Z,35.97
2023-02-11T05:54:51.272Z,31.40
2023-02-11T05:57:18.797Z,30.73
2023-02-11T05:59:45.937Z,29.80
2023-02-11T06:02:13.387Z,31.13
2023-02-11T06:04:41.475Z,33.45
2023-02-11T06:07:08.410Z,32.30
2023-02-11T06:09:38.894Z,33.05
2023-02-11T06:12:06.103Z,35.65
2023-02-11T06:14:34.481Z,30.67
2023-02-11T06:17:01.677Z,34.03
2023-02-11T06:19:28.993Z,30.45
2023-02-11T06:21:56.941Z,31.17
2023-02-11T06:24:51.090Z,28.00
2023-02-11T06:27:11.555Z,27.25
2023-02-11T06:29:38.833Z,27.73
2023-02-11T06:32:05.995Z,32.70
2023-02-11T06:34:33.212Z,28.20
2023-02-11T06:37:00.244Z,27.85
2023-02-11T06:39:27.423Z,29.65
2023-02-11T06:41:54.475Z,27.13
2023-02-11T06:44:21.700Z,31.08
2023-02-11T06:46:48.766Z,29.30
2023-02-11T06:49:15.992Z,28.77
2023-02-11T06:51:43.167Z,31.85
2023-02-11T06:54:12.967Z,29.42
2023-02-11T06:56:41.483Z,33.60
2023-02-11T06:59:09.103Z,31.50
2023-02-11T07:01:36.178Z,31.20
2023-02-11T07:04:03.798Z,31.30
2023-02-11T07:06:30.841Z,33.30
2023-02-11T07:08:58.035Z,31.48
2023-02-11T07:11:29.720Z,29.60
2023-02-11T07:14:03.388Z,28.95
2023-02-11T07:16:31.684Z,33.10
2023-02-11T07:18:59.230Z,34.90
2023-02-11T07:21:26.315Z,28.35
2023-02-11T07:23:53.861Z,37.50
2023-02-11T07:26:23.845Z,28.30
2023-02-11T07:28:51.994Z,27.25
2023-02-11T07:31:29.698Z,28.63
2023-02-11T07:34:00.548Z,29.45
2023-02-11T07:36:32.241Z,32.05
2023-02-11T07:39:00.407Z,31.67
2023-02-11T07:41:27.946Z,31.50
2023-02-11T07:43:56.080Z,32.20
2023-02-11T07:46:27.045Z,28.63
2023-02-11T07:48:55.718Z,32.42
2023-02-11T07:51:31.719Z,31.38
2023-02-11T07:54:00.784Z,29.58
2023-02-11T07:56:29.412Z,30.58
2023-02-11T07:59:02.390Z,31.95
2023-02-11T08:01:30.881Z,28.70
2023-02-11T08:04:01.060Z,28.70
2023-02-11T08:06:32.645Z,35.90
2023-02-11T08:09:07.926Z,30.45
2023-02-11T08:14:03.123Z,26.88
2023-02-11T08:16:40.267Z,32.83
2023-02-11T08:19:16.197Z,29.50
2023-02-11T08:21:44.575Z,27.73
2023-02-11T08:24:12.243Z,30.40
2023-02-11T08:26:41.168Z,35.53
2023-02-11T08:29:14.788Z,31.60
2023-02-11T08:31:45.946Z,33.78
2023-02-11T08:34:18.283Z,31.60
2023-02-11T08:36:47.182Z,28.85
2023-02-11T08:39:22.860Z,31.25
2023-02-11T08:41:53.712Z,27.33
2023-02-11T08:44:22.036Z,30.70
2023-02-11T08:46:50.980Z,30.00
2023-02-11T08:49:18.930Z,30.00
2023-02-11T08:51:47.471Z,30.55
2023-02-11T08:54:15.189Z,31.40
2023-02-11T08:56:42.702Z,28.33
2023-02-11T08:59:15.117Z,32.30
2023-02-11T09:01:42.194Z,29.98
2023-02-11T09:04:10.902Z,27.55
2023-02-11T09:06:38.141Z,29.10
2023-02-11T09:09:05.668Z,31.85
2023-02-11T09:11:42.030Z,29.92
2023-02-11T09:14:19.397Z,33.08
2023-02-11T09:16:47.028Z,26.67
2023-02-11T09:19:14.373Z,27.25
2023-02-11T09:21:41.480Z,26.73
2023-02-11T09:24:08.944Z,25.67
2023-02-11T09:26:37.760Z,29.40
2023-02-11T09:29:06.009Z,30.60
2023-02-11T09:31:34.885Z,29.58
2023-02-11T09:34:06.512Z,29.08
2023-02-11T09:36:38.801Z,28.98
2023-02-11T09:39:12.015Z,32.17
2023-02-11T09:42:01.914Z,32.88
2023-02-11T09:44:34.867Z,26.52
2023-02-11T09:47:24.948Z,30.45
2023-02-11T09:50:36.415Z,27.98
2023-02-11T09:53:21.162Z,30.20
2023-02-11T09:55:57.624Z,31.63
2023-02-11T09:58:31.768Z,28.42
2023-02-11T10:01:08.949Z,29.77
2023-02-11T10:04:02.796Z,28.08
2023-02-11T10:06:38.648Z,30.83
2023-02-11T10:09:44.047Z,27.80
2023-02-11T10:12:42.359Z,26.63
2023-02-11T10:15:18.424Z,33.00
2023-02-11T10:18:19.797Z,33.58
2023-02-11T10:21:52.791Z,32.83
2023-02-11T10:24:21.754Z,31.35
2023-02-11T10:26:49.320Z,28.80
2023-02-11T10:29:48.267Z,29.77
2023-02-11T10:32:46.943Z,27.48
2023-02-11T10:35:22.449Z,31.00
2023-02-11T10:37:50.806Z,31.65
2023-02-11T10:40:31.703Z,28.05
2023-02-11T10:43:07.919Z,29.55
2023-02-11T10:45:42.078Z,33.70
2023-02-11T10:48:51.707Z,30.13
2023-02-11T10:51:28.993Z,36.60
2023-02-11T10:54:05.527Z,33.22
2023-02-11T10:56:40.201Z,31.40
2023-02-11T10:59:33.196Z,29.10
2023-02-11T11:02:07.980Z,29.95
2023-02-11T11:04:45.070Z,26.35
2023-02-11T11:07:23.053Z,32.53
2023-02-11T11:10:24.563Z,32.53
2023-02-11T11:12:51.889Z,27.75
2023-02-11T11:15:25.016Z,29.65
2023-02-11T11:18:23.022Z,28.52
2023-02-11T11:21:07.862Z,30.15
2023-02-11T11:23:37.863Z,25.45
2023-02-11T11:26:13.127Z,31.60
2023-02-11T11:29:16.864Z,30.13
2023-02-11T11:32:05.434Z,24.58
2023-02-11T11:34:41.882Z,41.03
2023-02-11T11:37:24.823Z,29.20
2023-02-11T11:40:16.186Z,29.23
2023-02-11T11:42:44.113Z,27.20
2023-02-11T11:45:20.370Z,29.00
2023-02-11T11:48:23.293Z,34.20
2023-02-11T11:50:58.196Z,33.95
2023-02-11T11:54:00.532Z,28.77
2023-02-11T11:56:34.653Z,28.33
2023-02-11T11:59:13.180Z,26.80
2023-02-11T12:02:26.566Z,28.15
2023-02-11T12:05:13.922Z,27.60
2023-02-11T12:07:55.162Z,27.63
2023-02-11T12:11:06.795Z,25.17
2023-02-11T12:14:04.311Z,26.67
2023-02-11T12:16:37.284Z,21.38
2023-02-11T12:20:13.125Z,33.83
2023-02-11T12:22:45.438Z,30.52
2023-02-11T12:25:26.700Z,30.20
2023-02-11T12:28:20.391Z,24.92
2023-02-11T12:31:27.839Z,31.95
2023-02-11T12:34:25.791Z,25.90
2023-02-11T12:37:22.398Z,27.60
2023-02-11T12:40:25.612Z,27.30
2023-02-11T12:43:20.653Z,26.30
2023-02-11T12:45:56.763Z,26.38
2023-02-11T12:49:03.597Z,28.35
2023-02-11T12:51:49.395Z,30.25
2023-02-11T12:54:34.482Z,25.77
2023-02-11T12:57:13.275Z,28.80
2023-02-11T12:59:50.132Z,26.08
2023-02-11T13:02:43.786Z,28.35
2023-02-11T13:05:40.544Z,27.38
2023-02-11T13:08:31.666Z,25.40
2023-02-11T13:11:15.151Z,30.70
2023-02-11T13:13:45.517Z,29.30
2023-02-11T13:16:32.950Z,27.92
2023-02-11T13:19:18.236Z,25.52
2023-02-11T13:22:09.073Z,27.83
2023-02-11T13:24:56.688Z,27.80
2023-02-11T13:27:33.480Z,24.25
2023-02-11T13:30:46.913Z,30.85
2023-02-11T13:33:17.078Z,26.10
2023-02-11T13:36:09.671Z,29.75
2023-02-11T13:38:38.790Z,24.50
2023-02-11T13:41:18.564Z,28.02
2023-02-11T13:44:04.185Z,26.42
2023-02-11T13:49:35.745Z,31.55
2023-02-11T13:52:16.425Z,31.17
2023-02-11T13:54:53.908Z,24.45
2023-02-11T13:57:20.945Z,32.47
2023-02-11T13:59:56.901Z,30.58
2023-02-11T14:02:55.615Z,26.10
2023-02-11T14:05:49.390Z,28.88
2023-02-11T14:08:43.371Z,26.33
2023-02-11T14:11:32.509Z,25.88
2023-02-11T14:14:21.807Z,24.27
2023-02-11T14:17:07.239Z,29.25
2023-02-11T14:19:40.474Z,24.00
2023-02-11T14:22:11.928Z,25.58
2023-02-11T14:24:38.819Z,24.17
2023-02-11T14:27:21.512Z,27.15
2023-02-11T14:30:18.993Z,27.27
2023-02-11T14:32:56.171Z,24.73
2023-02-11T14:35:52.696Z,24.40
2023-02-11T14:38:37.977Z,22.85
2023-02-11T14:41:18.530Z,24.73
2023-02-11T14:43:56.166Z,25.50
2023-02-11T14:46:25.668Z,23.33
2023-02-11T14:48:58.492Z,25.63
2023-02-11T14:51:36.201Z,26.95
2023-02-11T14:54:18.996Z,23.90
2023-02-11T14:56:46.972Z,24.38
2023-02-11T14:59:21.840Z,22.60
2023-02-11T15:01:56.689Z,26.38
2023-02-11T15:04:36.168Z,25.40
2023-02-11T15:07:08.634Z,28.70
2023-02-11T15:10:01.260Z,25.73
2023-02-11T15:12:29.041Z,28.77
2023-02-11T15:15:00.963Z,25.05
2023-02-11T15:17:32.203Z,27.58
2023-02-11T15:20:02.596Z,28.08
2023-02-11T15:22:36.627Z,27.65
2023-02-11T15:25:10.950Z,25.65
2023-02-11T15:27:42.856Z,22.90
2023-02-11T15:30:34.304Z,25.02
2023-02-11T15:33:06.090Z,27.05
2023-02-11T15:35:38.591Z,26.52
2023-02-11T15:38:06.221Z,29.45
2023-02-11T15:40:37.479Z,24.77
2023-02-11T15:43:07.981Z,26.00
2023-02-11T15:45:37.864Z,25.38
2023-02-11T15:48:33.468Z,26.05
2023-02-11T15:53:43.433Z,21.30
2023-02-11T15:56:25.112Z,28.85
2023-02-11T15:58:57.410Z,20.63
2023-02-11T16:01:43.671Z,24.10
2023-02-11T16:04:23.693Z,26.00
2023-02-11T16:06:53.002Z,24.50
2023-02-11T16:09:20.038Z,26.58
2023-02-11T16:11:49.789Z,28.75
2023-02-11T16:14:32.406Z,25.25
2023-02-11T16:17:06.085Z,26.63
2023-02-11T16:19:35.717Z,28.05
2023-02-11T16:22:11.578Z,22.33
2023-02-11T16:24:40.171Z,27.35
2023-02-11T16:27:39.848Z,26.10
2023-02-11T16:30:23.565Z,24.27
2023-02-11T16:32:53.308Z,22.02
2023-02-11T16:35:20.930Z,26.80
2023-02-11T16:37:48.275Z,21.33
2023-02-11T16:40:15.638Z,24.25
2023-02-11T16:42:43.019Z,23.60
2023-02-11T16:45:10.348Z,23.65
2023-02-11T16:47:41.024Z,26.02
2023-02-11T16:50:21.594Z,24.48
2023-02-11T16:52:49.855Z,24.75
2023-02-11T16:55:16.968Z,26.25
2023-02-11T16:57:44.221Z,26.00
2023-02-11T17:00:15.866Z,23.98
2023-02-11T17:02:44.066Z,21.10
2023-02-11T17:05:22.890Z,23.40
2023-02-11T17:07:50.419Z,23.05
2023-02-11T17:10:23.535Z,23.90
2023-02-11T17:12:53.468Z,19.73
2023-02-11T17:15:20.529Z,22.23
2023-02-11T17:17:48.206Z,21.00
2023-02-11T17:20:16.122Z,20.33
2023-02-11T17:22:43.417Z,22.48
2023-02-11T17:25:10.643Z,22.88
2023-02-11T17:27:38.027Z,23.73
2023-02-11T17:30:06.249Z,20.35
2023-02-11T17:32:33.765Z,23.30
2023-02-11T17:35:00.796Z,22.48
2023-02-11T17:37:28.770Z,22.02
2023-02-11T17:39:55.707Z,21.95
2023-02-11T17:42:23.022Z,25.05
2023-02-11T17:44:49.865Z,26.95
2023-02-11T17:47:17.259Z,19.27
2023-02-11T17:49:44.322Z,23.88
2023-02-11T17:52:12.030Z,22.23
2023-02-11T17:54:39.075Z,25.15
2023-02-11T17:57:06.320Z,19.67
2023-02-11T17:59:35.555Z,21.98
2023-02-11T18:02:04.382Z,26.38
2023-02-11T18:04:32.333Z,25.02
2023-02-11T18:06:59.626Z,26.02
2023-02-11T18:09:27.132Z,21.88
2023-02-11T18:11:55.095Z,21.98
2023-02-11T18:14:22.752Z,31.90
2023-02-11T18:16:53.367Z,25.50
2023-02-11T18:19:20.971Z,37.45
2023-02-11T18:21:50.421Z,32.90
2023-02-11T18:24:18.684Z,31.88
2023-02-11T18:26:46.091Z,22.80
2023-02-11T18:29:13.135Z,32.75
2023-02-11T18:31:40.462Z,24.88
2023-02-11T18:34:10.604Z,24.83
2023-02-11T18:36:38.397Z,26.75
2023-02-11T18:39:06.331Z,22.17
2023-02-11T18:41:34.232Z,21.80
2023-02-11T18:44:03.165Z,23.73
2023-02-11T18:46:32.518Z,24.00
2023-02-11T18:48:59.813Z,24.83
2023-02-11T18:51:27.212Z,22.77
2023-02-11T18:53:54.730Z,22.77
2023-02-11T18:56:25.118Z,23.23
2023-02-11T18:58:52.196Z,23.25
2023-02-11T19:01:27.518Z,24.50
2023-02-11T19:03:57.545Z,24.42
2023-02-11T19:06:29.650Z,22.98
2023-02-11T19:09:02.363Z,22.73
2023-02-11T19:11:47.359Z,26.25
2023-02-11T19:14:21.771Z,22.42
2023-02-11T19:19:19.761Z,22.17
2023-02-11T19:21:47.741Z,21.58
2023-02-11T19:24:19.076Z,21.20
2023-02-11T19:26:49.387Z,22.20
2023-02-11T19:29:17.792Z,26.33
2023-02-11T19:31:46.137Z,20.35
2023-02-11T19:34:16.178Z,23.50
2023-02-11T19:36:43.835Z,19.90
2023-02-11T19:39:10.929Z,20.92
2023-02-11T19:41:39.403Z,27.92
2023-02-11T19:44:08.273Z,21.55
2023-02-11T19:46:40.864Z,29.25
2023-02-11T19:49:08.619Z,28.85
2023-02-11T19:51:39.454Z,20.42
2023-02-11T19:54:07.817Z,19.58
2023-02-11T19:56:35.418Z,26.15
2023-02-11T19:59:04.177Z,21.90
2023-02-11T20:01:31.706Z,20.45
2023-02-11T20:03:58.775Z,31.58
2023-02-11T20:06:30.529Z,25.42
2023-02-11T20:09:01.618Z,19.70
2023-02-11T20:11:31.732Z,28.02
2023-02-11T20:14:00.197Z,22.90
2023-02-11T20:16:46.929Z,27.55
2023-02-11T20:19:21.717Z,20.83
2023-02-11T20:21:53.424Z,29.23
2023-02-11T20:24:21.017Z,27.73
2023-02-11T20:26:49.805Z,27.90
2023-02-11T20:29:18.404Z,20.80
2023-02-11T20:31:46.276Z,21.17
2023-02-11T20:34:13.646Z,21.38
2023-02-11T20:36:41.699Z,30.90
2023-02-11T20:39:11.299Z,28.33
2023-02-11T20:41:41.464Z,23.50
2023-02-11T20:44:10.613Z,22.90
2023-02-11T20:46:41.428Z,21.40
2023-02-11T20:49:11.884Z,20.27
2023-02-11T20:51:40.031Z,20.30
2023-02-11T20:54:08.041Z,23.60
2023-02-11T20:56:37.132Z,20.98
2023-02-11T20:59:06.018Z,20.00
2023-02-11T21:01:37.598Z,20.58
2023-02-11T21:04:18.448Z,19.08
2023-02-11T21:06:50.796Z,20.25
2023-02-11T21:09:22.535Z,19.83
2023-02-11T21:11:52.287Z,21.00
2023-02-11T21:14:22.306Z,19.42
2023-02-11T21:16:49.973Z,18.13
2023-02-11T21:19:17.872Z,22.63
2023-02-11T21:21:45.718Z,19.42
2023-02-11T21:24:13.913Z,22.85
2023-02-11T21:26:41.653Z,18.85
2023-02-11T21:29:09.181Z,22.15
2023-02-11T21:31:37.499Z,19.95
2023-02-11T21:34:06.220Z,18.65
2023-02-11T21:36:33.877Z,22.42
2023-02-11T21:39:01.921Z,18.13
2023-02-11T21:41:29.652Z,22.35
2023-02-11T21:43:57.079Z,22.05
2023-02-11T21:46:24.962Z,18.23
2023-02-11T21:48:52.738Z,22.48
2023-02-11T21:51:26.021Z,22.52
2023-02-11T21:54:01.482Z,21.75
2023-02-11T21:56:31.645Z,20.38
2023-02-11T21:59:00.187Z,19.25
2023-02-11T22:01:35.327Z,18.50
2023-02-11T22:04:02.655Z,19.10
2023-02-11T22:06:33.943Z,21.15
2023-02-11T22:09:10.822Z,21.40
2023-02-11T22:11:38.274Z,20.25
2023-02-11T22:14:05.563Z,16.63
2023-02-11T22:16:33.055Z,17.80
2023-02-11T22:19:02.489Z,22.95
2023-02-11T22:21:30.816Z,17.20
2023-02-11T22:23:57.906Z,19.92
2023-02-11T22:26:27.878Z,18.75
2023-02-11T22:28:55.772Z,18.70
2023-02-11T22:31:28.543Z,19.90
2023-02-11T22:33:57.160Z,19.70
2023-02-11T22:36:29.543Z,23.02
2023-02-11T22:39:00.648Z,22.13
2023-02-11T22:41:28.324Z,19.35
2023-02-11T22:43:55.397Z,20.05
2023-02-11T22:46:22.681Z,19.83
2023-02-11T22:48:51.017Z,19.63
2023-02-11T22:51:26.730Z,19.58
2023-02-11T22:54:00.948Z,21.45
2023-02-11T22:56:30.268Z,16.10
2023-02-11T22:58:59.810Z,19.60
2023-02-11T23:01:29.467Z,22.98
2023-02-11T23:03:59.707Z,25.77
2023-02-11T23:06:26.968Z,19.33
2023-02-11T23:08:54.513Z,24.73
2023-02-11T23:11:26.431Z,21.20
2023-02-11T23:13:54.443Z,25.02
2023-02-11T23:16:27.710Z,20.25
2023-02-11T23:18:55.348Z,18.30
2023-02-11T23:21:27.180Z,31.02
2023-02-11T23:24:00.629Z,24.15
2023-02-11T23:26:28.761Z,16.20
2023-02-11T23:28:56.250Z,19.15
2023-02-11T23:31:35.387Z,19.40
2023-02-11T23:34:02.636Z,19.00
2023-02-11T23:36:30.267Z,16.52
2023-02-11T23:38:57.500Z,23.15
2023-02-11T23:41:25.217Z,18.50
2023-02-11T23:43:55.734Z,15.57
2023-02-11T23:46:25.565Z,17.88
2023-02-11T23:48:53.780Z,15.27
2023-02-11T23:51:21.847Z,14.63
2023-02-11T23:53:49.781Z,12.98
2023-02-11T23:56:21.383Z,15.43
2023-02-11T23:58:50.592Z,14.38
